Time;durP1;ratioP1;P1;durP2;ratioP2;P2;SDS_P1;SDS_P2;PMS_P1;PMS_P2;Temp;Humidity;BMP_temperature;BMP_pressure;BME280_temperature;BME280_humidity;BME280_pressure;Samples;Min_cycle;Max_cycle;Signal;HPM_P1;HPM_P2
2023/06/01 00:02:06;;;;;;;33.92;9.27;;;;;;;;;;5004445;28;20033;-74
2023/06/01 00:04:32;;;;;;;24.85;9.48;;;;;;;;;;5010407;28;20040;-73
2023/06/01 00:07:01;;;;;;;29.85;9.50;;;;;;;;;;5010780;28;20026;-72
2023/06/01 00:09:27;;;;;;;30.90;9.57;;;;;;;;;;5010964;28;20032;-74
2023/06/01 00:11:53;;;;;;;24.23;8.82;;;;;;;;;;5010398;28;20051;-73
2023/06/01 00:14:19;;;;;;;23.45;8.60;;;;;;;;;;5012039;28;20084;-73
2023/06/01 00:16:45;;;;;;;26.50;9.50;;;;;;;;;;5011939;28;20033;-73
2023/06/01 00:19:11;;;;;;;23.48;9.13;;;;;;;;;;5012332;28;20022;-72
2023/06/01 00:21:37;;;;;;;32.40;10.23;;;;;;;;;;5012301;28;20045;-72
2023/06/01 00:24:03;;;;;;;33.03;11.38;;;;;;;;;;5012054;28;20344;-73
2023/06/01 00:26:32;;;;;;;27.42;11.52;;;;;;;;;;5011632;28;20092;-73
2023/06/01 00:29:01;;;;;;;30.33;11.75;;;;;;;;;;5014093;28;20022;-71
2023/06/01 00:31:27;;;;;;;31.98;11.55;;;;;;;;;;5017073;28;20030;-73
2023/06/01 00:33:53;;;;;;;32.53;11.95;;;;;;;;;;5017318;28;20029;-73
2023/06/01 00:36:19;;;;;;;26.90;12.18;;;;;;;;;;5017215;28;20026;-73
2023/06/01 00:38:45;;;;;;;24.95;11.70;;;;;;;;;;5013368;28;20026;-73
2023/06/01 00:41:12;;;;;;;30.08;12.43;;;;;;;;;;5012646;28;20076;-73
2023/06/01 00:43:38;;;;;;;25.58;11.82;;;;;;;;;;5011051;28;20029;-74
2023/06/01 00:46:04;;;;;;;33.22;12.45;;;;;;;;;;5011916;28;20026;-74
2023/06/01 00:48:30;;;;;;;29.20;11.18;;;;;;;;;;5012434;28;20034;-74
2023/06/01 00:50:58;;;;;;;27.98;11.23;;;;;;;;;;5012507;28;20129;-73
2023/06/01 00:53:25;;;;;;;30.83;11.07;;;;;;;;;;5011583;28;20430;-74
2023/06/01 00:55:51;;;;;;;23.30;9.75;;;;;;;;;;5011131;28;20037;-73
2023/06/01 00:58:17;;;;;;;24.90;9.52;;;;;;;;;;5014023;28;20443;-72
2023/06/01 01:00:43;;;;;;;25.67;9.43;;;;;;;;;;5013512;28;20040;-74
2023/06/01 01:03:10;;;;;;;26.00;8.65;;;;;;;;;;5026093;28;20025;-74
2023/06/01 01:05:37;;;;;;;24.67;8.45;;;;;;;;;;5010069;28;20102;-73
2023/06/01 01:08:22;;;;;;;28.23;8.30;;;;;;;;;;5010991;28;20025;-74
2023/06/01 01:10:53;;;;;;;29.10;8.30;;;;;;;;;;5011224;28;20034;-73
2023/06/01 01:13:35;;;;;;;29.50;8.23;;;;;;;;;;5010616;28;20472;-74
2023/06/01 01:16:08;;;;;;;31.45;8.43;;;;;;;;;;5010839;28;20026;-74
2023/06/01 01:18:37;;;;;;;25.85;7.05;;;;;;;;;;5011320;28;20026;-73
2023/06/01 01:21:21;;;;;;;24.20;7.25;;;;;;;;;;5010159;28;20073;-73
2023/06/01 01:24:09;;;;;;;32.08;7.03;;;;;;;;;;5012314;28;20103;-72
2023/06/01 01:26:38;;;;;;;24.27;7.07;;;;;;;;;;5029243;28;20080;-72
2023/06/01 01:29:07;;;;;;;28.13;8.05;;;;;;;;;;5013671;28;20041;-72
2023/06/01 01:31:33;;;;;;;30.65;8.15;;;;;;;;;;5013523;28;20030;-72
2023/06/01 01:33:59;;;;;;;26.33;9.00;;;;;;;;;;5012372;28;20036;-71
2023/06/01 01:36:26;;;;;;;27.70;8.70;;;;;;;;;;5011336;28;20333;-72
2023/06/01 01:38:52;;;;;;;29.83;9.88;;;;;;;;;;5013171;28;20084;-71
2023/06/01 01:41:18;;;;;;;31.83;9.25;;;;;;;;;;5022442;28;20372;-72
2023/06/01 01:43:44;;;;;;;30.58;10.10;;;;;;;;;;5032419;28;20028;-71
2023/06/01 01:46:25;;;;;;;27.27;9.77;;;;;;;;;;5032561;28;20049;-72
2023/06/01 01:48:54;;;;;;;33.42;10.23;;;;;;;;;;5032269;28;20021;-73
2023/06/01 01:51:22;;;;;;;25.65;8.98;;;;;;;;;;5032479;28;20036;-73
2023/06/01 01:53:51;;;;;;;35.55;9.85;;;;;;;;;;5031707;28;20018;-72
2023/06/01 01:56:18;;;;;;;28.90;9.60;;;;;;;;;;5032895;28;20031;-73
2023/06/01 01:58:45;;;;;;;25.92;10.50;;;;;;;;;;5032590;28;20124;-73
2023/06/01 02:01:12;;;;;;;29.20;10.45;;;;;;;;;;5032338;28;20028;-73
2023/06/01 02:03:38;;;;;;;33.90;10.60;;;;;;;;;;5031816;28;20545;-72
2023/06/01 02:06:04;;;;;;;34.40;11.75;;;;;;;;;;5032034;28;20497;-73
2023/06/01 02:08:30;;;;;;;33.83;10.98;;;;;;;;;;5032400;28;20104;-71
2023/06/01 02:10:56;;;;;;;26.75;9.55;;;;;;;;;;5031877;28;20022;-72
2023/06/01 02:13:22;;;;;;;35.65;9.57;;;;;;;;;;5031775;28;20025;-72
2023/06/01 02:15:48;;;;;;;36.22;10.43;;;;;;;;;;5031748;28;20025;-72
2023/06/01 02:18:17;;;;;;;27.45;8.63;;;;;;;;;;5033245;28;20017;-72
2023/06/01 02:20:43;;;;;;;36.17;9.63;;;;;;;;;;5031744;28;20382;-72
2023/06/01 02:23:09;;;;;;;35.63;10.05;;;;;;;;;;5031637;28;20021;-72
2023/06/01 02:25:35;;;;;;;32.60;9.25;;;;;;;;;;5031962;28;20036;-73
2023/06/01 02:28:01;;;;;;;31.73;9.40;;;;;;;;;;5031701;28;20021;-72
2023/06/01 02:30:27;;;;;;;25.25;8.70;;;;;;;;;;5032101;28;20156;-72
2023/06/01 02:32:53;;;;;;;31.67;9.32;;;;;;;;;;5031002;28;20173;-72
2023/06/01 02:35:19;;;;;;;30.13;10.63;;;;;;;;;;5031905;28;20553;-71
2023/06/01 02:37:45;;;;;;;29.80;9.07;;;;;;;;;;5030682;28;20116;-73
2023/06/01 02:40:12;;;;;;;32.08;10.05;;;;;;;;;;5031449;28;20490;-73
2023/06/01 02:42:38;;;;;;;34.10;10.40;;;;;;;;;;5030902;28;20121;-72
2023/06/01 02:45:05;;;;;;;26.75;9.25;;;;;;;;;;5031947;28;20022;-73
2023/06/01 02:47:31;;;;;;;27.90;9.35;;;;;;;;;;5031889;28;20390;-76
2023/06/01 02:49:57;;;;;;;36.47;9.88;;;;;;;;;;5031428;28;20021;-71
2023/06/01 02:52:23;;;;;;;24.25;10.05;;;;;;;;;;5030709;28;20034;-72
2023/06/01 02:54:49;;;;;;;26.45;9.60;;;;;;;;;;5031486;28;20076;-71
2023/06/01 02:57:15;;;;;;;23.42;9.73;;;;;;;;;;5031669;28;20041;-71
2023/06/01 02:59:41;;;;;;;37.47;11.02;;;;;;;;;;5031314;28;20033;-70
2023/06/01 03:02:07;;;;;;;29.10;9.95;;;;;;;;;;5030684;28;20033;-71
2023/06/01 03:04:33;;;;;;;34.38;9.88;;;;;;;;;;5030982;28;20041;-70
2023/06/01 03:07:01;;;;;;;29.65;7.30;;;;;;;;;;5030926;28;20490;-73
2023/06/01 03:09:27;;;;;;;35.50;7.90;;;;;;;;;;5030869;28;20483;-72
2023/06/01 03:11:53;;;;;;;26.95;7.03;;;;;;;;;;5030601;28;20556;-73
2023/06/01 03:14:19;;;;;;;27.15;6.97;;;;;;;;;;5031139;28;20101;-71
2023/06/01 03:16:45;;;;;;;28.05;7.57;;;;;;;;;;5031775;28;20018;-73
2023/06/01 03:19:11;;;;;;;29.20;6.75;;;;;;;;;;5033133;28;20022;-73
2023/06/01 03:21:37;;;;;;;18.05;5.88;;;;;;;;;;5032242;28;20037;-74
2023/06/01 03:24:03;;;;;;;35.75;6.50;;;;;;;;;;5032214;28;20021;-74
2023/06/01 03:26:29;;;;;;;29.30;6.43;;;;;;;;;;5032187;28;20034;-75
2023/06/01 03:28:55;;;;;;;21.77;6.97;;;;;;;;;;5032816;28;20021;-74
2023/06/01 03:31:21;;;;;;;27.17;8.00;;;;;;;;;;5031844;28;20033;-73
2023/06/01 03:33:47;;;;;;;33.05;9.00;;;;;;;;;;5031948;28;20032;-71
2023/06/01 03:36:14;;;;;;;28.00;8.82;;;;;;;;;;5031893;28;20041;-72
2023/06/01 03:38:41;;;;;;;24.33;8.48;;;;;;;;;;5031820;28;20095;-72
2023/06/01 03:41:07;;;;;;;27.67;8.70;;;;;;;;;;5031589;28;20056;-72
2023/06/01 03:43:33;;;;;;;28.30;9.57;;;;;;;;;;5031680;28;20025;-71
2023/06/01 03:45:59;;;;;;;35.05;9.85;;;;;;;;;;5030690;28;20411;-75
2023/06/01 03:48:25;;;;;;;30.08;9.32;;;;;;;;;;5009980;28;20113;-77
2023/06/01 03:50:51;;;;;;;30.90;9.05;;;;;;;;;;5010342;28;20495;-76
2023/06/01 03:53:17;;;;;;;31.83;8.20;;;;;;;;;;5010980;28;20017;-74
2023/06/01 03:55:43;;;;;;;28.77;8.32;;;;;;;;;;5005134;28;20091;-73
2023/06/01 03:58:09;;;;;;;28.60;7.97;;;;;;;;;;5013213;28;20029;-74
2023/06/01 04:00:36;;;;;;;30.15;8.35;;;;;;;;;;5011451;28;20538;-74
2023/06/01 04:03:04;;;;;;;35.38;9.27;;;;;;;;;;5010697;28;20030;-75
2023/06/01 04:05:31;;;;;;;23.67;7.85;;;;;;;;;;5010121;28;20107;-76
2023/06/01 04:07:57;;;;;;;28.40;7.93;;;;;;;;;;5006676;28;20021;-76
2023/06/01 04:10:23;;;;;;;28.88;8.15;;;;;;;;;;5011797;28;20034;-74
2023/06/01 04:12:50;;;;;;;29.50;8.52;;;;;;;;;;5010664;28;20101;-71
2023/06/01 04:15:17;;;;;;;24.50;6.97;;;;;;;;;;5011517;28;20018;-72
2023/06/01 04:17:44;;;;;;;32.25;7.60;;;;;;;;;;5011408;28;20460;-71
2023/06/01 04:20:11;;;;;;;27.52;6.88;;;;;;;;;;5011502;28;20034;-73
2023/06/01 04:22:37;;;;;;;26.60;6.75;;;;;;;;;;5011263;28;20454;-71
2023/06/01 04:25:08;;;;;;;30.95;7.15;;;;;;;;;;5011223;28;20027;-72
2023/06/01 04:27:36;;;;;;;32.85;7.72;;;;;;;;;;5011552;28;20021;-72
2023/06/01 04:30:03;;;;;;;35.20;6.57;;;;;;;;;;5011392;28;20037;-73
2023/06/01 04:32:30;;;;;;;26.63;7.10;;;;;;;;;;5010441;28;20026;-76
2023/06/01 04:34:56;;;;;;;37.30;7.40;;;;;;;;;;5008111;28;20367;-73
2023/06/01 04:37:24;;;;;;;22.20;7.10;;;;;;;;;;5011638;28;20026;-73
2023/06/01 04:39:51;;;;;;;30.90;7.13;;;;;;;;;;5010890;28;20052;-73
2023/06/01 04:42:18;;;;;;;31.05;7.25;;;;;;;;;;5007016;28;20058;-73
2023/06/01 04:44:46;;;;;;;32.75;6.97;;;;;;;;;;5017846;28;20131;-74
2023/06/01 04:47:12;;;;;;;27.45;6.80;;;;;;;;;;5011322;28;20026;-74
2023/06/01 04:49:41;;;;;;;30.40;6.15;;;;;;;;;;5010592;28;20022;-73
2023/06/01 04:52:07;;;;;;;29.10;6.18;;;;;;;;;;5011316;28;20076;-72
2023/06/01 04:54:33;;;;;;;28.40;5.90;;;;;;;;;;5011994;28;20026;-71
2023/06/01 04:56:59;;;;;;;27.42;6.97;;;;;;;;;;5013450;28;20076;-71
2023/06/01 04:59:25;;;;;;;24.25;6.10;;;;;;;;;;5015940;28;20061;-71
2023/06/01 05:01:51;;;;;;;24.23;5.88;;;;;;;;;;5015621;28;20030;-71
2023/06/01 05:04:17;;;;;;;30.33;6.00;;;;;;;;;;5014856;28;20483;-73
2023/06/01 05:06:43;;;;;;;31.23;6.53;;;;;;;;;;5014609;28;20032;-74
2023/06/01 05:09:09;;;;;;;24.48;6.38;;;;;;;;;;5015771;28;20029;-74
2023/06/01 05:11:35;;;;;;;34.35;6.72;;;;;;;;;;5036599;28;20352;-75
2023/06/01 05:14:02;;;;;;;34.20;6.90;;;;;;;;;;5018094;28;20037;-72
2023/06/01 05:16:28;;;;;;;30.48;6.57;;;;;;;;;;5016163;28;20021;-71
2023/06/01 05:18:55;;;;;;;34.03;6.65;;;;;;;;;;5015993;28;20036;-72
2023/06/01 05:21:21;;;;;;;25.73;7.40;;;;;;;;;;5016168;28;20050;-72
2023/06/01 05:23:47;;;;;;;28.10;5.82;;;;;;;;;;5015470;28;20100;-73
2023/06/01 05:26:13;;;;;;;29.27;7.45;;;;;;;;;;5018010;28;20064;-74
2023/06/01 05:28:39;;;;;;;31.23;6.75;;;;;;;;;;5016420;28;20056;-77
2023/06/01 05:31:06;;;;;;;18.95;6.07;;;;;;;;;;5016645;28;20018;-74
2023/06/01 05:33:32;;;;;;;27.17;6.70;;;;;;;;;;5014808;28;20056;-72
2023/06/01 05:35:58;;;;;;;21.67;5.57;;;;;;;;;;5016274;28;20025;-71
2023/06/01 05:38:24;;;;;;;29.80;6.25;;;;;;;;;;5015467;28;20029;-70
2023/06/01 05:40:50;;;;;;;28.40;6.13;;;;;;;;;;5017565;28;20030;-70
2023/06/01 05:43:16;;;;;;;25.60;6.00;;;;;;;;;;5012037;28;20037;-72
2023/06/01 05:45:42;;;;;;;32.53;6.90;;;;;;;;;;5007969;28;20030;-72
2023/06/01 05:48:08;;;;;;;28.65;5.97;;;;;;;;;;5015918;28;20361;-75
2023/06/01 05:50:34;;;;;;;27.00;5.90;;;;;;;;;;5013660;28;20392;-73
2023/06/01 05:53:00;;;;;;;27.52;5.78;;;;;;;;;;5016493;28;20026;-71
2023/06/01 05:55:26;;;;;;;26.20;5.93;;;;;;;;;;5014922;28;20026;-72
2023/06/01 05:57:52;;;;;;;21.48;5.35;;;;;;;;;;5014473;28;20097;-75
2023/06/01 06:00:18;;;;;;;30.40;5.38;;;;;;;;;;5014378;28;20061;-72
2023/06/01 06:02:44;;;;;;;23.92;5.40;;;;;;;;;;5013372;28;20034;-73
2023/06/01 06:05:11;;;;;;;22.17;4.95;;;;;;;;;;5013918;28;20026;-75
2023/06/01 06:07:37;;;;;;;19.50;5.38;;;;;;;;;;5013311;28;20044;-73
2023/06/01 06:10:04;;;;;;;27.10;5.50;;;;;;;;;;5014725;28;20030;-73
2023/06/01 06:12:30;;;;;;;28.05;5.05;;;;;;;;;;5014823;28;20026;-72
2023/06/01 06:14:56;;;;;;;21.65;5.82;;;;;;;;;;5014591;28;20041;-73
2023/06/01 06:17:22;;;;;;;28.00;5.80;;;;;;;;;;5014213;28;20200;-71
2023/06/01 06:19:49;;;;;;;19.77;4.75;;;;;;;;;;5013382;28;20117;-73
2023/06/01 06:22:15;;;;;;;24.83;5.10;;;;;;;;;;5014094;28;20105;-72
2023/06/01 06:24:42;;;;;;;28.50;5.50;;;;;;;;;;5014169;28;20034;-74
2023/06/01 06:27:09;;;;;;;34.83;6.03;;;;;;;;;;5013929;28;20036;-74
2023/06/01 06:29:35;;;;;;;29.33;6.00;;;;;;;;;;5014443;28;20032;-75
2023/06/01 06:32:02;;;;;;;33.47;5.50;;;;;;;;;;5012486;28;20022;-72
2023/06/01 06:34:35;;;;;;;28.52;6.40;;;;;;;;;;5013463;28;20018;-71
2023/06/01 06:37:01;;;;;;;22.75;5.20;;;;;;;;;;5013210;28;20030;-71
2023/06/01 06:39:27;;;;;;;27.45;5.10;;;;;;;;;;5013027;28;20018;-71
2023/06/01 06:41:53;;;;;;;28.92;5.78;;;;;;;;;;5013118;28;20041;-72
2023/06/01 06:44:19;;;;;;;23.92;5.28;;;;;;;;;;5021111;28;20018;-73
2023/06/01 06:46:45;;;;;;;32.45;6.38;;;;;;;;;;5019877;28;20463;-76
2023/06/01 06:49:11;;;;;;;21.50;4.88;;;;;;;;;;5015628;28;20072;-74
2023/06/01 06:51:37;;;;;;;26.40;5.22;;;;;;;;;;5017015;28;20471;-74
2023/06/01 06:54:05;;;;;;;23.42;4.32;;;;;;;;;;5013761;28;20081;-72
2023/06/01 06:56:31;;;;;;;30.30;4.47;;;;;;;;;;5020968;28;20506;-73
2023/06/01 06:58:57;;;;;;;19.30;3.83;;;;;;;;;;5023290;28;20046;-72
2023/06/01 07:01:25;;;;;;;18.58;3.72;;;;;;;;;;5019444;28;20042;-74
2023/06/01 07:03:52;;;;;;;27.27;4.95;;;;;;;;;;5017122;28;20026;-74
2023/06/01 07:06:18;;;;;;;18.23;3.97;;;;;;;;;;5021713;28;20532;-72
2023/06/01 07:08:44;;;;;;;25.55;7.35;;;;;;;;;;5021274;28;20437;-73
2023/06/01 07:11:10;;;;;;;26.95;5.20;;;;;;;;;;5019042;28;20025;-70
2023/06/01 07:13:37;;;;;;;32.42;8.00;;;;;;;;;;5017207;28;20049;-72
2023/06/01 07:16:05;;;;;;;29.20;7.43;;;;;;;;;;5013489;28;20064;-71
2023/06/01 07:18:31;;;;;;;27.63;8.95;;;;;;;;;;5012949;28;20026;-75
2023/06/01 07:20:57;;;;;;;24.48;6.07;;;;;;;;;;5010270;28;20036;-74
2023/06/01 07:23:23;;;;;;;26.90;6.88;;;;;;;;;;5009263;28;20033;-72
2023/06/01 07:25:49;;;;;;;34.75;4.80;;;;;;;;;;5011490;28;20026;-72
2023/06/01 07:28:15;;;;;;;28.55;8.95;;;;;;;;;;5011450;28;20165;-72
2023/06/01 07:30:42;;;;;;;24.55;6.43;;;;;;;;;;5011393;28;20057;-73
2023/06/01 07:33:08;;;;;;;24.88;6.60;;;;;;;;;;5010455;28;20122;-72
2023/06/01 07:35:34;;;;;;;36.90;7.90;;;;;;;;;;5011145;28;20097;-73
2023/06/01 07:38:03;;;;;;;22.63;7.38;;;;;;;;;;5011361;28;20476;-71
2023/06/01 07:40:29;;;;;;;27.88;6.88;;;;;;;;;;5011798;28;20037;-74
2023/06/01 07:42:55;;;;;;;25.52;6.15;;;;;;;;;;5014276;28;20025;-71
2023/06/01 07:45:22;;;;;;;29.52;8.20;;;;;;;;;;5013320;28;20036;-73
2023/06/01 07:47:48;;;;;;;26.02;4.38;;;;;;;;;;5011712;28;20038;-72
2023/06/01 07:50:14;;;;;;;23.25;4.20;;;;;;;;;;5011676;28;20053;-73
2023/06/01 07:52:41;;;;;;;28.70;4.57;;;;;;;;;;5010832;28;20041;-75
2023/06/01 07:55:09;;;;;;;20.98;4.72;;;;;;;;;;5012045;28;20109;-75
2023/06/01 07:57:35;;;;;;;21.83;4.32;;;;;;;;;;5011387;28;20028;-73
2023/06/01 08:00:03;;;;;;;20.88;4.38;;;;;;;;;;5010155;28;20022;-71
2023/06/01 08:02:28;;;;;;;25.88;5.20;;;;;;;;;;5009933;28;20108;-72
2023/06/01 08:04:56;;;;;;;25.40;4.90;;;;;;;;;;5011530;28;20113;-71
2023/06/01 08:07:22;;;;;;;20.35;4.78;;;;;;;;;;5011766;28;20033;-71
2023/06/01 08:09:49;;;;;;;23.27;5.53;;;;;;;;;;5011666;28;20029;-71
2023/06/01 08:12:17;;;;;;;27.75;4.95;;;;;;;;;;5011314;28;20022;-71
2023/06/01 08:14:44;;;;;;;28.77;5.65;;;;;;;;;;5011987;28;20126;-72
2023/06/01 08:17:11;;;;;;;23.15;4.95;;;;;;;;;;5012360;28;20041;-72
2023/06/01 08:19:37;;;;;;;26.48;4.70;;;;;;;;;;5011633;28;20505;-72
2023/06/01 08:22:05;;;;;;;22.52;4.88;;;;;;;;;;5012305;28;20072;-71
2023/06/01 08:24:32;;;;;;;30.15;5.80;;;;;;;;;;5012237;28;20029;-71
2023/06/01 08:26:58;;;;;;;20.80;4.55;;;;;;;;;;5014138;28;20022;-72
2023/06/01 08:29:24;;;;;;;30.67;4.68;;;;;;;;;;5013871;28;20121;-71
2023/06/01 08:31:50;;;;;;;23.20;4.97;;;;;;;;;;5015864;28;20048;-72
2023/06/01 08:34:16;;;;;;;24.88;4.72;;;;;;;;;;5019636;28;20026;-74
2023/06/01 08:36:42;;;;;;;23.67;4.85;;;;;;;;;;5019544;28;20032;-72
2023/06/01 08:39:22;;;;;;;25.55;5.00;;;;;;;;;;5018788;28;20029;-72
2023/06/01 08:42:05;;;;;;;24.40;4.68;;;;;;;;;;5018006;28;20061;-72
2023/06/01 08:44:35;;;;;;;17.23;4.55;;;;;;;;;;5018441;28;20062;-74
2023/06/01 08:47:02;;;;;;;21.58;3.83;;;;;;;;;;5019066;28;20021;-73
2023/06/01 08:49:30;;;;;;;20.70;4.15;;;;;;;;;;5018741;28;20028;-74
2023/06/01 08:51:57;;;;;;;18.83;3.80;;;;;;;;;;5018812;28;20022;-73
2023/06/01 08:54:23;;;;;;;24.55;4.22;;;;;;;;;;5019708;28;20060;-73
2023/06/01 08:56:49;;;;;;;29.30;4.47;;;;;;;;;;5018767;28;20029;-77
2023/06/01 08:59:15;;;;;;;19.67;3.88;;;;;;;;;;5020741;28;20025;-73
2023/06/01 09:01:41;;;;;;;25.98;4.15;;;;;;;;;;5018319;28;20021;-75
2023/06/01 09:04:09;;;;;;;31.02;4.45;;;;;;;;;;5018733;28;20040;-73
2023/06/01 09:06:36;;;;;;;28.17;5.22;;;;;;;;;;5023912;28;20095;-79
2023/06/01 09:09:02;;;;;;;29.65;5.40;;;;;;;;;;5035711;28;20090;-76
2023/06/01 09:11:28;;;;;;;41.30;5.72;;;;;;;;;;5041558;28;20025;-77
2023/06/01 09:13:54;;;;;;;19.23;4.32;;;;;;;;;;5039847;28;20021;-79
2023/06/01 09:16:20;;;;;;;27.95;4.88;;;;;;;;;;5040632;28;20056;-76
2023/06/01 09:18:56;;;;;;;31.83;5.80;;;;;;;;;;5020018;28;20025;-76
2023/06/01 09:21:23;;;;;;;24.88;6.03;;;;;;;;;;5017971;28;20123;-72
2023/06/01 09:23:49;;;;;;;34.58;11.00;;;;;;;;;;5018056;28;20468;-77
2023/06/01 09:26:15;;;;;;;25.30;4.35;;;;;;;;;;5019563;28;20399;-79
2023/06/01 09:29:07;;;;;;;24.10;4.68;;;;;;;;;;5019043;28;20022;-78
2023/06/01 09:31:46;;;;;;;20.65;4.82;;;;;;;;;;5016460;28;20037;-76
2023/06/01 09:34:15;;;;;;;36.67;5.32;;;;;;;;;;5019367;28;20128;-77
2023/06/01 09:36:41;;;;;;;23.73;5.15;;;;;;;;;;5018900;28;20104;-74
2023/06/01 09:39:11;;;;;;;21.27;4.25;;;;;;;;;;5017844;28;20030;-72
2023/06/01 09:41:47;;;;;;;21.35;4.50;;;;;;;;;;5017773;28;20403;-72
2023/06/01 09:44:32;;;;;;;22.30;4.55;;;;;;;;;;5013642;28;20442;-72
2023/06/01 09:47:06;;;;;;;25.35;4.95;;;;;;;;;;5014703;28;20518;-72
2023/06/01 09:49:39;;;;;;;23.90;5.93;;;;;;;;;;5014640;28;20029;-75
2023/06/01 09:52:05;;;;;;;18.77;5.25;;;;;;;;;;5014600;28;20018;-71
2023/06/01 09:54:37;;;;;;;24.83;4.72;;;;;;;;;;5014366;28;20084;-72
2023/06/01 09:57:04;;;;;;;25.98;5.32;;;;;;;;;;5015050;28;20029;-71
2023/06/01 09:59:30;;;;;;;26.50;5.22;;;;;;;;;;5015101;28;20022;-72
2023/06/01 10:01:57;;;;;;;22.42;4.60;;;;;;;;;;5015298;28;20018;-71
2023/06/01 10:04:25;;;;;;;23.95;4.65;;;;;;;;;;5016100;28;20022;-71
2023/06/01 10:06:51;;;;;;;23.70;4.28;;;;;;;;;;5016755;28;20034;-72
2023/06/01 10:09:19;;;;;;;18.25;4.95;;;;;;;;;;5017055;28;20529;-71
2023/06/01 10:11:46;;;;;;;30.30;5.25;;;;;;;;;;5015031;28;20022;-72
2023/06/01 10:14:13;;;;;;;25.45;4.78;;;;;;;;;;5014847;28;20108;-75
2023/06/01 10:16:40;;;;;;;28.08;5.10;;;;;;;;;;5014883;28;20018;-76
2023/06/01 10:19:07;;;;;;;21.50;4.20;;;;;;;;;;5015754;28;20491;-77
2023/06/01 10:21:34;;;;;;;22.58;4.50;;;;;;;;;;5016410;28;20026;-76
2023/06/01 10:24:00;;;;;;;28.55;4.38;;;;;;;;;;5014209;28;20048;-75
2023/06/01 10:26:28;;;;;;;21.35;4.60;;;;;;;;;;5014599;28;20084;-76
2023/06/01 10:28:55;;;;;;;23.33;4.55;;;;;;;;;;5015022;28;20026;-77
2023/06/01 10:31:41;;;;;;;22.65;4.03;;;;;;;;;;5012978;28;20026;-77
2023/06/01 10:34:07;;;;;;;30.50;4.70;;;;;;;;;;5014252;28;20029;-74
2023/06/01 10:36:51;;;;;;;30.90;8.23;;;;;;;;;;5013841;28;20561;-74
2023/06/01 10:39:24;;;;;;;20.97;4.90;;;;;;;;;;5013562;28;20034;-76
2023/06/01 10:41:51;;;;;;;26.15;6.50;;;;;;;;;;5013201;28;20038;-76
2023/06/01 10:44:35;;;;;;;28.08;5.13;;;;;;;;;;5013572;28;20065;-77
2023/06/01 10:47:01;;;;;;;20.13;4.35;;;;;;;;;;5013656;28;20062;-72
2023/06/01 10:49:47;;;;;;;23.08;5.00;;;;;;;;;;5013736;28;20080;-70
2023/06/01 10:52:26;;;;;;;36.10;5.72;;;;;;;;;;5013710;28;20026;-72
2023/06/01 10:54:52;;;;;;;26.85;4.85;;;;;;;;;;5013545;28;20026;-71
2023/06/01 10:57:22;;;;;;;18.95;4.40;;;;;;;;;;5014284;28;20030;-72
2023/06/01 11:00:07;;;;;;;20.70;4.15;;;;;;;;;;5015061;28;20026;-76
2023/06/01 11:02:33;;;;;;;26.27;4.53;;;;;;;;;;5016827;28;20018;-70
2023/06/01 11:05:20;;;;;;;25.33;5.00;;;;;;;;;;5016765;28;20041;-72
2023/06/01 11:07:46;;;;;;;26.10;4.57;;;;;;;;;;5014545;28;20025;-75
2023/06/01 11:10:12;;;;;;;19.45;4.60;;;;;;;;;;5016160;28;20103;-72
2023/06/01 11:12:56;;;;;;;27.20;4.57;;;;;;;;;;5013872;28;20018;-70
2023/06/01 11:15:22;;;;;;;22.25;4.93;;;;;;;;;;5013433;28;20108;-70
2023/06/01 11:17:48;;;;;;;21.30;4.45;;;;;;;;;;5013125;28;20064;-72
2023/06/01 11:20:15;;;;;;;25.45;4.32;;;;;;;;;;5013614;28;20065;-72
2023/06/01 11:22:41;;;;;;;22.38;4.43;;;;;;;;;;5013797;28;20029;-73
2023/06/01 11:25:08;;;;;;;18.77;3.90;;;;;;;;;;5014240;28;20057;-72
2023/06/01 11:27:35;;;;;;;22.05;3.95;;;;;;;;;;5015170;28;20030;-73
2023/06/01 11:30:02;;;;;;;27.58;4.95;;;;;;;;;;5013870;28;20026;-73
2023/06/01 11:32:28;;;;;;;18.83;3.72;;;;;;;;;;5012646;28;20026;-72
2023/06/01 11:34:55;;;;;;;20.58;4.40;;;;;;;;;;5014809;28;20056;-71
2023/06/01 11:37:21;;;;;;;25.00;3.90;;;;;;;;;;5022434;28;20384;-72
2023/06/01 11:39:48;;;;;;;18.50;2.92;;;;;;;;;;5016094;28;20468;-72
2023/06/01 11:42:15;;;;;;;22.67;4.25;;;;;;;;;;5013993;28;20421;-72
2023/06/01 11:44:42;;;;;;;20.08;4.03;;;;;;;;;;5012365;28;20112;-72
2023/06/01 11:47:09;;;;;;;25.92;4.45;;;;;;;;;;5012139;28;20033;-71
2023/06/01 11:49:47;;;;;;;19.63;3.97;;;;;;;;;;5012496;28;20025;-72
2023/06/01 11:52:13;;;;;;;25.83;4.20;;;;;;;;;;5015139;28;20025;-72
2023/06/01 11:54:39;;;;;;;20.98;3.63;;;;;;;;;;5015143;28;20370;-72
2023/06/01 11:57:06;;;;;;;17.70;3.03;;;;;;;;;;5017720;28;20108;-71
2023/06/01 11:59:45;;;;;;;19.30;3.00;;;;;;;;;;5018095;28;20026;-72
2023/06/01 12:02:21;;;;;;;19.13;3.40;;;;;;;;;;5016734;28;20080;-71
2023/06/01 12:04:57;;;;;;;21.10;3.55;;;;;;;;;;5016709;28;20048;-71
2023/06/01 12:07:23;;;;;;;20.23;3.90;;;;;;;;;;5014103;28;20028;-71
2023/06/01 12:09:51;;;;;;;22.20;3.10;;;;;;;;;;5014024;28;20034;-71
2023/06/01 12:12:17;;;;;;;26.35;6.68;;;;;;;;;;5014759;28;20014;-73
2023/06/01 12:14:43;;;;;;;23.30;4.07;;;;;;;;;;5016059;28;20086;-70
2023/06/01 12:17:11;;;;;;;18.92;3.38;;;;;;;;;;5015709;28;20100;-71
2023/06/01 12:19:45;;;;;;;22.85;3.47;;;;;;;;;;5012120;28;20229;-71
2023/06/01 12:22:11;;;;;;;;;;;;;;;;;;5014137;28;20025;-73
2023/06/01 12:24:38;;;;;;;27.23;3.78;;;;;;;;;;5013161;28;19905;-71
2023/06/01 12:27:14;;;;;;;20.02;3.38;;;;;;;;;;5014374;28;20037;-71
2023/06/01 12:29:41;;;;;;;21.00;3.53;;;;;;;;;;5022702;28;20018;-73
2023/06/01 12:32:08;;;;;;;20.88;4.47;;;;;;;;;;5017096;28;20036;-72
2023/06/01 12:34:35;;;;;;;21.52;2.95;;;;;;;;;;5015652;28;20030;-72
2023/06/01 12:37:11;;;;;;;27.38;3.38;;;;;;;;;;5020099;28;20116;-72
2023/06/01 12:39:37;;;;;;;19.20;2.88;;;;;;;;;;5014732;28;20026;-72
2023/06/01 12:42:06;;;;;;;22.52;3.08;;;;;;;;;;5015913;28;20265;-71
2023/06/01 12:44:36;;;;;;;30.30;3.63;;;;;;;;;;5010876;28;20022;-71
2023/06/01 12:47:03;;;;;;;41.90;13.30;;;;;;;;;;5012201;28;20033;-72
2023/06/01 12:49:29;;;;;;;22.25;3.33;;;;;;;;;;5012043;28;20021;-72
2023/06/01 12:51:56;;;;;;;25.50;4.00;;;;;;;;;;5011503;28;20034;-72
2023/06/01 12:54:22;;;;;;;27.10;3.88;;;;;;;;;;5012864;28;20502;-73
2023/06/01 12:56:49;;;;;;;35.60;11.23;;;;;;;;;;5013557;28;20030;-71
2023/06/01 12:59:16;;;;;;;24.85;3.85;;;;;;;;;;5012230;28;20113;-72
2023/06/01 13:01:43;;;;;;;33.78;6.65;;;;;;;;;;5005964;28;20365;-71
2023/06/01 13:04:09;;;;;;;24.65;3.70;;;;;;;;;;5010996;28;20030;-71
2023/06/01 13:06:35;;;;;;;20.98;3.42;;;;;;;;;;5010911;28;20041;-71
2023/06/01 13:09:02;;;;;;;26.77;4.45;;;;;;;;;;5009942;28;20038;-72
2023/06/01 13:11:28;;;;;;;17.60;3.38;;;;;;;;;;5008122;28;20030;-71
2023/06/01 13:13:55;;;;;;;18.80;3.35;;;;;;;;;;5010537;28;20483;-71
2023/06/01 13:16:21;;;;;;;20.88;3.60;;;;;;;;;;5011314;28;20034;-72
2023/06/01 13:18:50;;;;;;;25.35;3.70;;;;;;;;;;5013171;28;20113;-70
2023/06/01 13:21:16;;;;;;;23.95;3.85;;;;;;;;;;5015271;28;20061;-71
2023/06/01 13:23:43;;;;;;;19.13;3.10;;;;;;;;;;5015971;28;20033;-70
2023/06/01 13:26:09;;;;;;;25.35;3.50;;;;;;;;;;5016061;28;20037;-71
2023/06/01 13:28:35;;;;;;;31.50;3.97;;;;;;;;;;5015555;28;20049;-71
2023/06/01 13:31:01;;;;;;;25.50;3.13;;;;;;;;;;5015281;28;20022;-71
2023/06/01 13:33:27;;;;;;;25.05;2.92;;;;;;;;;;5014452;28;20032;-73
2023/06/01 13:35:53;;;;;;;23.70;3.42;;;;;;;;;;5014952;28;20484;-72
2023/06/01 13:38:19;;;;;;;21.88;3.42;;;;;;;;;;5012533;28;20053;-71
2023/06/01 13:40:45;;;;;;;28.80;4.40;;;;;;;;;;5014846;28;20026;-71
2023/06/01 13:43:11;;;;;;;24.55;4.10;;;;;;;;;;5014418;28;20141;-72
2023/06/01 13:45:38;;;;;;;19.30;3.80;;;;;;;;;;5015998;28;20080;-70
2023/06/01 13:48:04;;;;;;;22.70;3.25;;;;;;;;;;4997781;28;20034;-71
2023/06/01 13:50:30;;;;;;;25.73;3.90;;;;;;;;;;5014583;28;20092;-69
2023/06/01 13:52:56;;;;;;;22.05;2.92;;;;;;;;;;5014003;28;20022;-71
2023/06/01 13:55:23;;;;;;;16.85;3.40;;;;;;;;;;5014644;28;20030;-71
2023/06/01 13:57:49;;;;;;;25.23;3.97;;;;;;;;;;5014783;28;20360;-71
2023/06/01 14:00:15;;;;;;;20.85;2.80;;;;;;;;;;5014229;28;20045;-72
2023/06/01 14:02:41;;;;;;;27.63;2.97;;;;;;;;;;5013668;28;20034;-72
2023/06/01 14:05:08;;;;;;;24.63;3.30;;;;;;;;;;5014484;28;20033;-71
2023/06/01 14:07:34;;;;;;;22.08;3.10;;;;;;;;;;5014505;28;20440;-72
2023/06/01 14:10:00;;;;;;;33.47;4.80;;;;;;;;;;5014977;28;20056;-71
2023/06/01 14:12:26;;;;;;;23.60;4.22;;;;;;;;;;5015551;28;20024;-71
2023/06/01 14:14:52;;;;;;;27.50;4.15;;;;;;;;;;5016163;28;20093;-75
2023/06/01 14:17:18;;;;;;;18.25;3.03;;;;;;;;;;5013173;28;20034;-72
2023/06/01 14:19:44;;;;;;;17.35;4.20;;;;;;;;;;5014954;28;20105;-73
2023/06/01 14:22:10;;;;;;;20.75;3.50;;;;;;;;;;5014547;28;20021;-73
2023/06/01 14:24:37;;;;;;;25.15;3.97;;;;;;;;;;5014528;28;20030;-76
2023/06/01 14:27:03;;;;;;;30.20;4.00;;;;;;;;;;5014755;28;20030;-70
2023/06/01 14:29:29;;;;;;;40.95;4.53;;;;;;;;;;5013156;28;20041;-71
2023/06/01 14:31:55;;;;;;;36.70;4.80;;;;;;;;;;5013217;28;20018;-71